createdAt,value
2017-08-16T00:00:25.426Z,78.44
2017-08-16T00:01:06.317Z,78.92
2017-08-16T00:01:47.206Z,79.12
2017-08-16T00:02:28.109Z,78.54
2017-08-16T00:03:09.005Z,78.34
2017-08-16T00:03:49.907Z,78.92
2017-08-16T00:04:30.793Z,79.89
2017-08-16T00:05:11.696Z,79.6
2017-08-16T00:05:52.596Z,79.41
2017-08-16T00:06:33.490Z,78.73
2017-08-16T00:07:14.389Z,78.64
2017-08-16T00:07:55.288Z,79.41
2017-08-16T00:08:36.209Z,79.66
2017-08-16T00:09:17.080Z,79.08
2017-08-16T00:09:58.005Z,79.17
2017-08-16T00:10:38.896Z,79.17
2017-08-16T00:11:19.792Z,79.17
2017-08-16T00:12:00.675Z,79.17
2017-08-16T00:12:41.567Z,79.56
2017-08-16T00:13:22.457Z,79.85
2017-08-16T00:14:03.344Z,79.95
2017-08-16T00:14:44.247Z,80.24
2017-08-16T00:15:25.144Z,80.43
2017-08-16T00:16:06.069Z,80.33
2017-08-16T00:16:46.965Z,80.14
2017-08-16T00:17:27.849Z,80.14
2017-08-16T00:18:08.746Z,80.14
2017-08-16T00:18:49.623Z,80.14
2017-08-16T00:19:30.525Z,80.24
2017-08-16T00:20:11.420Z,80.33
2017-08-16T00:20:52.321Z,80.14
2017-08-16T00:21:33.207Z,80.05
2017-08-16T00:22:14.093Z,79.85
2017-08-16T00:22:54.997Z,80.24
2017-08-16T00:23:35.886Z,80.24
2017-08-16T00:24:16.767Z,79.27
2017-08-16T00:24:57.670Z,79.75
2017-08-16T00:25:38.554Z,79.47
2017-08-16T00:26:19.447Z,79.37
2017-08-16T00:27:00.352Z,79.6
2017-08-16T00:27:41.261Z,79.7
2017-08-16T00:28:22.164Z,80.14
2017-08-16T00:29:03.055Z,79.75
2017-08-16T00:29:43.953Z,80.24
2017-08-16T00:30:24.846Z,80.08
2017-08-16T00:31:05.730Z,79.47
2017-08-16T00:31:46.625Z,80.24
2017-08-16T00:32:27.535Z,79.47
2017-08-16T00:33:08.433Z,80.08
2017-08-16T00:33:49.361Z,80.28
2017-08-16T00:34:30.243Z,79.99
2017-08-16T00:35:11.125Z,79.6
2017-08-16T00:35:52.018Z,79.6
2017-08-16T00:36:32.974Z,80.28
2017-08-16T00:37:13.863Z,80.28
2017-08-16T00:37:54.755Z,80.28
2017-08-16T00:38:35.653Z,80.18
2017-08-16T00:39:16.538Z,79.89
2017-08-16T00:39:57.432Z,79.89
2017-08-16T00:40:38.333Z,79.89
2017-08-16T00:41:19.214Z,80.18
2017-08-16T00:42:00.096Z,79.99
2017-08-16T00:42:41.011Z,79.89
2017-08-16T00:43:21.887Z,79.85
2017-08-16T00:44:02.778Z,79.95
2017-08-16T00:44:43.670Z,79.95
2017-08-16T00:45:24.600Z,79.95
2017-08-16T00:46:05.461Z,79.85
2017-08-16T00:46:46.385Z,80.05
2017-08-16T00:47:27.282Z,80.53
2017-08-16T00:48:08.197Z,80.72
2017-08-16T00:48:49.093Z,80.72
2017-08-16T00:49:29.991Z,81.01
2017-08-16T00:50:10.886Z,80.95
2017-08-16T00:50:51.768Z,80.62
2017-08-16T00:51:32.662Z,80.53
2017-08-16T00:52:13.561Z,80.53
2017-08-16T00:52:54.446Z,80.43
2017-08-16T00:53:35.357Z,80.62
2017-08-16T00:54:16.238Z,80.53
2017-08-16T00:54:57.136Z,80.62
2017-08-16T00:55:38.043Z,80.62
2017-08-16T00:56:18.942Z,80.62
2017-08-16T00:56:59.851Z,81.01
2017-08-16T00:57:40.733Z,80.86
2017-08-16T00:58:21.633Z,80.91
2017-08-16T00:59:02.527Z,80.62
2017-08-16T00:59:43.421Z,81.01
2017-08-16T01:00:24.378Z,81.11
2017-08-16T01:01:05.219Z,81.2
2017-08-16T01:01:46.094Z,80.91
2017-08-16T01:02:27.005Z,81.88
2017-08-16T01:03:07.900Z,81.59
2017-08-16T01:03:48.798Z,81.05
2017-08-16T01:04:29.691Z,80.86
2017-08-16T01:05:10.581Z,80.76
2017-08-16T01:05:51.464Z,80.76
2017-08-16T01:06:32.355Z,80.38
2017-08-16T01:07:13.248Z,80.28
2017-08-16T01:07:54.139Z,80.66
2017-08-16T01:08:35.068Z,80.57
2017-08-16T01:09:15.954Z,80.76
2017-08-16T01:09:56.863Z,80.38
2017-08-16T01:10:37.763Z,80.86
2017-08-16T01:11:18.660Z,80.86
2017-08-16T01:11:59.550Z,80.38
2017-08-16T01:12:40.447Z,80.76
2017-08-16T01:13:21.342Z,81.05
2017-08-16T01:14:02.242Z,81.34
2017-08-16T01:14:43.136Z,81.05
2017-08-16T01:15:38.572Z,80.95
2017-08-16T01:16:19.487Z,80.57
2017-08-16T01:17:00.367Z,80.66
2017-08-16T01:17:41.260Z,80.66
2017-08-16T01:18:22.146Z,80.76
2017-08-16T01:19:03.047Z,80.66
2017-08-16T01:19:43.936Z,80.76
2017-08-16T01:20:24.828Z,80.57
2017-08-16T01:21:05.730Z,81.15
2017-08-16T01:21:46.639Z,81.34
2017-08-16T01:22:27.544Z,81.01
2017-08-16T01:23:08.434Z,80.86
2017-08-16T01:23:49.325Z,80.86
2017-08-16T01:24:30.223Z,80.86
2017-08-16T01:25:11.124Z,81.15
2017-08-16T01:25:52.019Z,80.86
2017-08-16T01:26:32.924Z,81.05
2017-08-16T01:27:13.811Z,81.88
2017-08-16T01:27:54.698Z,81.82
2017-08-16T01:28:35.598Z,81.59
2017-08-16T01:29:16.494Z,81.49
2017-08-16T01:29:57.415Z,81.4
2017-08-16T01:30:38.288Z,81.78
2017-08-16T01:31:19.176Z,81.59
2017-08-16T01:32:00.094Z,81.78
2017-08-16T01:32:40.980Z,81.68
2017-08-16T01:33:21.879Z,82.46
2017-08-16T01:34:02.775Z,82.46
2017-08-16T01:34:43.666Z,81.78
2017-08-16T01:35:24.560Z,81.98
2017-08-16T01:36:05.449Z,81.98
2017-08-16T01:36:46.342Z,82.46
2017-08-16T01:37:27.249Z,82.46
2017-08-16T01:38:08.143Z,82.36
2017-08-16T01:38:49.037Z,82.46
2017-08-16T01:39:29.931Z,82.56
2017-08-16T01:40:10.828Z,82.46
2017-08-16T01:40:51.711Z,82.36
2017-08-16T01:41:32.624Z,82.65
2017-08-16T01:42:13.504Z,82.46
2017-08-16T01:42:54.401Z,82.26
2017-08-16T01:43:35.307Z,82.26
2017-08-16T01:44:16.187Z,82.56
2017-08-16T01:44:57.080Z,82.56
2017-08-16T01:45:37.963Z,82.84
2017-08-16T01:46:18.864Z,82.84
2017-08-16T01:46:59.747Z,82.75
2017-08-16T01:47:40.636Z,83.29
2017-08-16T01:48:21.535Z,83.33
2017-08-16T01:49:02.424Z,83.23
2017-08-16T01:49:43.335Z,82.75
2017-08-16T01:50:24.206Z,82.94
2017-08-16T01:51:05.081Z,83.04
2017-08-16T01:51:45.971Z,83.33
2017-08-16T01:52:26.871Z,83.19
2017-08-16T01:53:07.749Z,83.58
2017-08-16T01:53:48.692Z,83.33
2017-08-16T01:54:29.582Z,82.9
2017-08-16T01:55:10.485Z,83.67
2017-08-16T01:55:51.373Z,83.87
2017-08-16T01:56:32.262Z,83.67
2017-08-16T01:57:13.163Z,83.87
2017-08-16T01:57:54.050Z,83.77
2017-08-16T01:58:34.937Z,83.67
2017-08-16T01:59:15.830Z,83.87
2017-08-16T01:59:56.725Z,83.87
2017-08-16T02:00:37.627Z,83.91
2017-08-16T02:01:18.522Z,83.91
2017-08-16T02:01:59.410Z,84.1
2017-08-16T02:02:40.303Z,83.81
2017-08-16T02:03:21.209Z,83.72
2017-08-16T02:04:02.082Z,83.42
2017-08-16T02:04:42.972Z,83.81
2017-08-16T02:05:23.869Z,83.42
2017-08-16T02:06:04.754Z,83.04
2017-08-16T02:06:45.646Z,83.33
2017-08-16T02:07:26.542Z,83.91
2017-08-16T02:08:07.437Z,84.1
2017-08-16T02:08:48.322Z,83.91
2017-08-16T02:09:29.237Z,83.52
2017-08-16T02:10:10.107Z,83.52
2017-08-16T02:10:51.001Z,83.33
2017-08-16T02:11:31.892Z,84.3
2017-08-16T02:12:12.804Z,83.62
2017-08-16T02:12:53.679Z,84.1
2017-08-16T02:13:34.576Z,83.72
2017-08-16T02:14:15.464Z,83.42
2017-08-16T02:14:56.390Z,83.42
2017-08-16T02:15:37.270Z,83.52
2017-08-16T02:16:18.168Z,83.23
2017-08-16T02:16:59.059Z,83.52
2017-08-16T02:17:39.955Z,83.42
2017-08-16T02:18:20.850Z,83.33
2017-08-16T02:19:01.742Z,83.33
2017-08-16T02:19:42.638Z,83.23
2017-08-16T02:20:23.539Z,83.33
2017-08-16T02:21:04.432Z,83.72
2017-08-16T02:21:45.316Z,83.42
2017-08-16T02:22:26.216Z,84.1
2017-08-16T02:23:07.108Z,84.2
2017-08-16T02:23:48.028Z,83.91
2017-08-16T02:24:28.921Z,83.91
2017-08-16T02:25:09.807Z,83.91
2017-08-16T02:25:50.706Z,83.91
2017-08-16T02:26:31.595Z,83.91
2017-08-16T02:27:12.483Z,83.42
2017-08-16T02:27:53.364Z,83.42
2017-08-16T02:28:34.271Z,83.81
2017-08-16T02:29:15.161Z,84.2
2017-08-16T02:29:56.048Z,84.78
2017-08-16T02:30:36.945Z,84.88
2017-08-16T02:31:17.834Z,84.97
2017-08-16T02:31:58.723Z,85.06
2017-08-16T02:32:39.630Z,84.97
2017-08-16T02:33:20.512Z,84.58
2017-08-16T02:34:01.398Z,84.68
2017-08-16T02:34:42.286Z,85.02
2017-08-16T02:35:23.206Z,85.36
2017-08-16T02:36:04.100Z,85.6
2017-08-16T02:36:44.995Z,85.26
2017-08-16T02:37:25.884Z,85.5
2017-08-16T02:38:06.773Z,85.6
2017-08-16T02:38:47.682Z,85.99
2017-08-16T02:39:28.560Z,86.47
2017-08-16T02:40:09.453Z,85.89
2017-08-16T02:40:50.356Z,85.7
2017-08-16T02:41:31.238Z,85.22
2017-08-16T02:42:12.131Z,85.41
2017-08-16T02:42:53.026Z,86.38
2017-08-16T02:43:33.914Z,86.38
2017-08-16T02:44:14.806Z,86.66
2017-08-16T02:44:55.709Z,86.28
2017-08-16T02:45:36.595Z,86.28
2017-08-16T02:46:17.504Z,86.28
2017-08-16T02:46:58.409Z,86.57
2017-08-16T02:47:39.300Z,87.24
2017-08-16T02:48:20.209Z,86.38
2017-08-16T02:49:01.115Z,87.44
2017-08-16T02:49:42.014Z,86.76
2017-08-16T02:50:22.905Z,87.34
2017-08-16T02:51:03.811Z,86.76
2017-08-16T02:51:44.704Z,86.66
2017-08-16T02:52:25.609Z,87.44
2017-08-16T02:53:06.500Z,87.15
2017-08-16T02:53:47.405Z,87.3
2017-08-16T02:54:28.306Z,87.01
2017-08-16T02:55:09.194Z,87.3
2017-08-16T02:55:50.098Z,86.38
2017-08-16T02:56:31.013Z,87.49
2017-08-16T02:57:11.900Z,87.3
2017-08-16T02:57:52.804Z,87.3
2017-08-16T02:58:33.729Z,87.3
2017-08-16T02:59:14.631Z,87.24
2017-08-16T02:59:55.529Z,87.24
2017-08-16T03:00:36.424Z,87.3
2017-08-16T03:01:17.329Z,87.1
2017-08-16T03:01:58.223Z,86.96
2017-08-16T03:02:39.124Z,87.59
2017-08-16T03:03:20.023Z,87.97
2017-08-16T03:04:00.919Z,87.24
2017-08-16T03:04:41.816Z,86.96
2017-08-16T03:05:22.726Z,86.57
2017-08-16T03:06:03.614Z,87.49
2017-08-16T03:06:44.517Z,87.49
2017-08-16T03:07:25.439Z,87.59
2017-08-16T03:08:06.339Z,87.44
2017-08-16T03:08:47.235Z,87.15
2017-08-16T03:09:28.126Z,87.53
2017-08-16T03:10:09.032Z,86.96
2017-08-16T03:10:49.933Z,86.66
2017-08-16T03:11:30.822Z,87.3
2017-08-16T03:12:11.724Z,87.2
2017-08-16T03:12:52.627Z,87.78
2017-08-16T03:13:33.511Z,87.2
2017-08-16T03:14:14.444Z,87.78
2017-08-16T03:14:55.327Z,87.59
2017-08-16T03:15:36.226Z,87.49
2017-08-16T03:16:17.102Z,87.97
2017-08-16T03:16:57.989Z,88.07
2017-08-16T03:17:38.876Z,88.07
2017-08-16T03:18:19.775Z,87.2
2017-08-16T03:19:00.680Z,87.68
2017-08-16T03:19:41.570Z,87.68
2017-08-16T03:20:22.465Z,88.07
2017-08-16T03:21:03.355Z,88.65
2017-08-16T03:21:44.250Z,87.97
2017-08-16T03:22:25.174Z,87.3
2017-08-16T03:23:06.074Z,87.54
2017-08-16T03:23:46.955Z,88.02
2017-08-16T03:24:27.842Z,88.31
2017-08-16T03:25:08.736Z,87.93
2017-08-16T03:25:49.632Z,87.64
2017-08-16T03:26:30.535Z,87.68
2017-08-16T03:27:11.429Z,87.74
2017-08-16T03:27:52.327Z,88.31
2017-08-16T03:28:33.221Z,88.17
2017-08-16T03:29:14.106Z,87.68
2017-08-16T03:29:55.009Z,87.78
2017-08-16T03:30:35.913Z,87.93
2017-08-16T03:31:16.800Z,87.83
2017-08-16T03:31:57.701Z,88.12
2017-08-16T03:32:38.588Z,87.93
2017-08-16T03:33:19.481Z,88.02
2017-08-16T03:34:00.385Z,88.12
2017-08-16T03:34:41.271Z,88.02
2017-08-16T03:35:22.170Z,87.83
2017-08-16T03:36:03.060Z,87.74
2017-08-16T03:36:43.948Z,88.12
2017-08-16T03:37:24.834Z,88.41
2017-08-16T03:38:05.739Z,87.74
2017-08-16T03:38:46.639Z,87.64
2017-08-16T03:39:27.537Z,87.45
2017-08-16T03:40:08.429Z,88.12
2017-08-16T03:40:49.326Z,88.41
2017-08-16T03:41:30.237Z,88.51
2017-08-16T03:42:11.113Z,88.12
2017-08-16T03:42:52.002Z,88.07
2017-08-16T03:43:32.896Z,87.54
2017-08-16T03:44:13.781Z,88.02
2017-08-16T03:44:54.672Z,88.79
2017-08-16T03:45:35.574Z,87.93
2017-08-16T03:46:16.464Z,87.93
2017-08-16T03:46:57.353Z,88.12
2017-08-16T03:47:38.243Z,87.45
2017-08-16T03:48:19.142Z,88.31
2017-08-16T03:49:00.031Z,88.12
2017-08-16T03:49:40.931Z,88.12
2017-08-16T03:50:21.822Z,88.12
2017-08-16T03:51:02.714Z,87.88
2017-08-16T03:51:43.640Z,88.02
2017-08-16T03:52:24.494Z,87.83
2017-08-16T03:53:05.382Z,87.93
2017-08-16T03:53:46.278Z,88.02
2017-08-16T03:54:27.174Z,88.45
2017-08-16T03:55:08.063Z,88.07
2017-08-16T03:55:48.972Z,88.65
2017-08-16T03:56:29.864Z,87.88
2017-08-16T03:57:10.759Z,87.97
2017-08-16T03:57:51.651Z,88.02
2017-08-16T03:58:32.538Z,88.7
2017-08-16T03:59:13.429Z,87.93
2017-08-16T03:59:54.336Z,88.22
2017-08-16T04:00:35.226Z,88.31
2017-08-16T04:01:16.115Z,88.12
2017-08-16T04:01:57.010Z,88.51
2017-08-16T04:02:37.896Z,88.7
2017-08-16T04:03:18.782Z,88.12
2017-08-16T04:03:59.678Z,88.31
2017-08-16T04:04:40.574Z,88.79
2017-08-16T04:05:21.478Z,87.83
2017-08-16T04:06:02.365Z,88.12
2017-08-16T04:06:43.266Z,88.22
2017-08-16T04:07:24.163Z,88.89
2017-08-16T04:08:05.051Z,88.17
2017-08-16T04:08:45.946Z,87.93
2017-08-16T04:09:26.853Z,88.41
2017-08-16T04:10:07.738Z,88.02
2017-08-16T04:10:48.626Z,88.41
2017-08-16T04:11:29.524Z,88.41
2017-08-16T04:12:10.406Z,88.22
2017-08-16T04:12:51.311Z,88.22
2017-08-16T04:13:32.208Z,88.51
2017-08-16T04:14:13.098Z,88.31
2017-08-16T04:14:53.998Z,88.51
2017-08-16T04:15:34.886Z,88.31
2017-08-16T04:16:15.777Z,88.12
2017-08-16T04:16:56.681Z,88.12
2017-08-16T04:17:37.559Z,88.02
2017-08-16T04:18:18.440Z,88.12
2017-08-16T04:18:59.324Z,88.89
2017-08-16T04:19:40.242Z,88.55
2017-08-16T04:20:21.124Z,88.36
2017-08-16T04:21:02.024Z,87.68
2017-08-16T04:21:42.912Z,88.41
2017-08-16T04:22:23.794Z,88.65
2017-08-16T04:23:04.685Z,88.51
2017-08-16T04:23:45.588Z,88.99
2017-08-16T04:24:26.473Z,88.26
2017-08-16T04:25:07.354Z,88.7
2017-08-16T04:25:48.240Z,88.12
2017-08-16T04:26:29.142Z,88.41
2017-08-16T04:27:10.034Z,88.51
2017-08-16T04:27:50.932Z,88.51
2017-08-16T04:28:31.869Z,89.09
2017-08-16T04:29:12.751Z,88.89
2017-08-16T04:29:53.634Z,88.41
2017-08-16T04:30:34.533Z,88.31
2017-08-16T04:31:15.449Z,88.22
2017-08-16T04:31:56.321Z,88.6
2017-08-16T04:32:37.250Z,88.79
2017-08-16T04:33:18.134Z,88.41
2017-08-16T04:33:59.003Z,88.02
2017-08-16T04:34:39.911Z,88.7
2017-08-16T04:35:20.786Z,88.31
2017-08-16T04:36:01.683Z,88.51
2017-08-16T04:36:42.592Z,88.79
2017-08-16T04:37:23.485Z,88.51
2017-08-16T04:38:04.391Z,88.85
2017-08-16T04:38:45.276Z,88.12
2017-08-16T04:39:26.166Z,88.08
2017-08-16T04:40:07.058Z,88.22
2017-08-16T04:40:47.953Z,88.31
2017-08-16T04:41:28.841Z,88.22
2017-08-16T04:42:09.735Z,88.79
2017-08-16T04:42:50.614Z,88.36
2017-08-16T04:43:31.494Z,88.99
2017-08-16T04:44:12.384Z,88.31
2017-08-16T04:44:53.298Z,87.98
2017-08-16T04:45:34.173Z,88.37
2017-08-16T04:46:15.066Z,89.04
2017-08-16T04:46:56.954Z,88.08
2017-08-16T04:47:37.858Z,88.22
2017-08-16T04:48:18.730Z,88.95
2017-08-16T04:48:59.624Z,88.51
2017-08-16T04:49:40.527Z,88.89
2017-08-16T04:50:21.403Z,88.46
2017-08-16T04:51:02.288Z,88.37
2017-08-16T04:52:35.550Z,88.65
2017-08-16T04:53:16.438Z,88.75
2017-08-16T04:53:57.338Z,88.37
2017-08-16T04:54:38.222Z,89.14
2017-08-16T04:55:19.114Z,87.98
2017-08-16T04:56:00.012Z,88.75
2017-08-16T04:56:40.936Z,88.65
2017-08-16T04:57:21.770Z,89.04
2017-08-16T04:58:02.661Z,88.46
2017-08-16T04:58:43.560Z,88.95
2017-08-16T04:59:24.455Z,87.98
2017-08-16T05:00:05.343Z,88.27
2017-08-16T05:00:46.226Z,88.08
2017-08-16T05:01:27.152Z,88.95
2017-08-16T05:02:08.116Z,87.79
2017-08-16T05:02:49.018Z,88.17
2017-08-16T05:03:29.878Z,88.46
2017-08-16T05:04:10.756Z,88.75
2017-08-16T05:04:51.637Z,88.37
2017-08-16T05:05:32.558Z,88.08
2017-08-16T05:06:13.422Z,89.14
2017-08-16T05:06:54.294Z,87.98
2017-08-16T05:07:35.182Z,88.37
2017-08-16T05:08:16.089Z,87.7
2017-08-16T05:08:57.042Z,88.37
2017-08-16T05:09:37.914Z,88.65
2017-08-16T05:10:18.798Z,88.85
2017-08-16T05:10:59.721Z,88.75
2017-08-16T05:11:40.597Z,88.37
2017-08-16T05:12:21.486Z,88.75
2017-08-16T05:13:02.379Z,88.27
2017-08-16T05:13:43.320Z,88.08
2017-08-16T05:14:24.211Z,88.56
2017-08-16T05:15:05.087Z,88.37
2017-08-16T05:15:45.964Z,88.37
2017-08-16T05:16:26.859Z,88.65
2017-08-16T05:17:07.751Z,88.17
2017-08-16T05:17:48.634Z,88.17
2017-08-16T05:18:29.526Z,88.12
2017-08-16T05:19:10.434Z,88.27
2017-08-16T05:19:51.301Z,88.46
2017-08-16T05:20:32.196Z,88.65
2017-08-16T05:21:13.173Z,88.17
2017-08-16T05:21:54.072Z,88.56
2017-08-16T05:22:35.008Z,88.17
2017-08-16T05:23:15.898Z,88.56
2017-08-16T05:23:56.793Z,87.79
2017-08-16T05:24:37.689Z,88.75
2017-08-16T05:25:18.580Z,88.6
2017-08-16T05:25:59.478Z,88.7
2017-08-16T05:26:40.361Z,88.7
2017-08-16T05:27:21.257Z,88.17
2017-08-16T05:28:02.149Z,88.37
2017-08-16T05:28:43.062Z,88.17
2017-08-16T05:29:23.952Z,88.56
2017-08-16T05:30:04.842Z,89.04
2017-08-16T05:30:45.737Z,88.79
2017-08-16T05:31:26.609Z,88.79
2017-08-16T05:32:07.486Z,88.99
2017-08-16T05:32:48.374Z,87.64
2017-08-16T05:33:29.261Z,88.17
2017-08-16T05:34:10.134Z,88.51
2017-08-16T05:34:51.015Z,88.27
2017-08-16T05:35:31.920Z,88.65
2017-08-16T05:36:12.830Z,88.51
2017-08-16T05:36:53.722Z,88.17
2017-08-16T05:37:34.620Z,87.88
2017-08-16T05:38:15.498Z,88.95
2017-08-16T05:38:56.388Z,88.56
2017-08-16T05:39:37.279Z,88.89
2017-08-16T05:40:18.174Z,88.08
2017-08-16T05:40:59.064Z,88.56
2017-08-16T05:41:39.971Z,88.65
2017-08-16T05:42:20.875Z,88.27
2017-08-16T05:43:01.790Z,88.37
2017-08-16T05:43:42.667Z,88.27
2017-08-16T05:44:23.556Z,88.46
2017-08-16T05:45:04.445Z,88.7
2017-08-16T05:45:45.334Z,88.7
2017-08-16T05:46:26.238Z,88.7
2017-08-16T05:47:07.136Z,88.37
2017-08-16T05:47:48.021Z,88.27
2017-08-16T05:48:28.915Z,88.17
2017-08-16T05:49:09.820Z,88.79
2017-08-16T05:49:50.706Z,88.37
2017-08-16T05:50:31.601Z,87.98
2017-08-16T05:51:12.498Z,88.17
2017-08-16T05:51:53.385Z,88.27
2017-08-16T05:52:34.289Z,88.27
2017-08-16T05:53:15.194Z,88.17
2017-08-16T05:53:56.080Z,88.37
2017-08-16T05:54:36.982Z,88.17
2017-08-16T05:55:17.876Z,88.46
2017-08-16T05:55:58.767Z,88.56
2017-08-16T05:56:39.653Z,88.46
2017-08-16T05:57:20.555Z,88.51
2017-08-16T05:58:01.441Z,88.51
2017-08-16T05:58:42.331Z,88.27
2017-08-16T05:59:23.222Z,88.65
2017-08-16T06:00:04.119Z,88.37
2017-08-16T06:00:45.001Z,87.98
2017-08-16T06:01:25.897Z,87.98
2017-08-16T06:02:06.788Z,88.27
2017-08-16T06:02:47.678Z,87.79
2017-08-16T06:03:28.561Z,88.04
2017-08-16T06:04:09.487Z,87.74
2017-08-16T06:04:50.378Z,88.42
2017-08-16T06:05:31.282Z,87.46
2017-08-16T06:06:12.192Z,87.17
2017-08-16T06:06:53.081Z,87.65
2017-08-16T06:07:33.984Z,87.94
2017-08-16T06:08:14.850Z,87.94
2017-08-16T06:08:55.730Z,88.04
2017-08-16T06:09:36.623Z,87.84
2017-08-16T06:10:17.515Z,88.13
2017-08-16T06:10:58.404Z,87.84
2017-08-16T06:11:39.301Z,87.74
2017-08-16T06:12:20.198Z,87.74
2017-08-16T06:13:01.101Z,87.36
2017-08-16T06:13:42.002Z,87.55
2017-08-16T06:14:22.898Z,87.36
2017-08-16T06:15:03.788Z,87.84
2017-08-16T06:15:44.688Z,87.84
2017-08-16T06:16:25.583Z,88.04
2017-08-16T06:17:06.486Z,87.36
2017-08-16T06:17:47.376Z,87.36
2017-08-16T06:18:28.290Z,87.17
2017-08-16T06:19:09.159Z,87.36
2017-08-16T06:19:50.050Z,87.12
2017-08-16T06:20:30.953Z,88.13
2017-08-16T06:21:11.824Z,87.84
2017-08-16T06:21:52.711Z,87.36
2017-08-16T06:22:33.601Z,87.46
2017-08-16T06:23:14.497Z,87.94
2017-08-16T06:23:55.386Z,87.94
2017-08-16T06:24:36.276Z,87.55
2017-08-16T06:25:17.156Z,88.04
2017-08-16T06:25:58.049Z,88.13
2017-08-16T06:26:38.942Z,87.46
2017-08-16T06:27:19.832Z,87.94
2017-08-16T06:28:00.722Z,87.94
2017-08-16T06:28:41.614Z,87.84
2017-08-16T06:29:22.508Z,87.55
2017-08-16T06:30:03.398Z,87.36
2017-08-16T06:30:44.289Z,87.36
2017-08-16T06:31:25.181Z,87.55
2017-08-16T06:32:06.081Z,87.55
2017-08-16T06:32:46.983Z,87.51
2017-08-16T06:33:27.841Z,87.26
2017-08-16T06:34:08.758Z,87.36
2017-08-16T06:34:49.652Z,87.55
2017-08-16T06:35:30.541Z,87.26
2017-08-16T06:36:11.438Z,87.26
2017-08-16T06:36:52.327Z,87.26
2017-08-16T06:37:33.256Z,87.46
2017-08-16T06:38:14.139Z,87.17
2017-08-16T06:38:55.030Z,86.59
2017-08-16T06:39:35.919Z,87.55
2017-08-16T06:40:16.805Z,86.59
2017-08-16T06:40:57.680Z,86.35
2017-08-16T06:41:38.571Z,86.98
2017-08-16T06:42:19.480Z,87.07
2017-08-16T06:43:00.371Z,87.17
2017-08-16T06:43:41.272Z,87.36
2017-08-16T06:44:22.158Z,86.69
2017-08-16T06:45:03.033Z,86.59
2017-08-16T06:45:43.930Z,86.88
2017-08-16T06:46:24.823Z,86.88
2017-08-16T06:47:05.767Z,86.4
2017-08-16T06:47:46.658Z,86.69
2017-08-16T06:48:27.541Z,87.36
2017-08-16T06:49:08.437Z,87.17
2017-08-16T06:49:49.370Z,86.01
2017-08-16T06:50:30.268Z,86.35
2017-08-16T06:51:11.161Z,87.07
2017-08-16T06:51:52.062Z,86.98
2017-08-16T06:52:32.955Z,86.3
2017-08-16T06:53:13.893Z,86.69
2017-08-16T06:53:54.780Z,86.78
2017-08-16T06:54:35.673Z,86.26
2017-08-16T06:55:16.581Z,86.26
2017-08-16T06:55:57.468Z,85.1
2017-08-16T06:56:38.352Z,86.16
2017-08-16T06:57:19.252Z,85.87
2017-08-16T06:58:00.132Z,86.93
2017-08-16T06:58:41.078Z,86.35
2017-08-16T06:59:21.955Z,86.45
2017-08-16T07:00:02.849Z,86.45
2017-08-16T07:00:43.762Z,85.3
2017-08-16T07:01:24.655Z,86.45
2017-08-16T07:02:05.553Z,85.49
2017-08-16T07:02:46.436Z,85.43
2017-08-16T07:03:27.321Z,85.49
2017-08-16T07:04:08.212Z,84.23
2017-08-16T07:04:49.116Z,85.58
2017-08-16T07:05:30.004Z,85.49
2017-08-16T07:06:10.908Z,86.26
2017-08-16T07:06:51.788Z,85.49
2017-08-16T07:07:32.678Z,86.26
2017-08-16T07:08:13.573Z,86.07
2017-08-16T07:08:54.468Z,86.74
2017-08-16T07:09:35.353Z,86.11
2017-08-16T07:10:16.258Z,85.05
2017-08-16T07:10:57.142Z,84.38
2017-08-16T07:11:38.025Z,85.3
2017-08-16T07:12:18.919Z,85.87
2017-08-16T07:12:59.814Z,85.43
2017-08-16T07:13:40.708Z,86.3
2017-08-16T07:14:21.611Z,86.69
2017-08-16T07:16:15.278Z,85.72
2017-08-16T07:16:56.164Z,85.63
2017-08-16T07:17:37.049Z,85.14
2017-08-16T07:18:17.944Z,85.91
2017-08-16T07:18:58.836Z,86.4
2017-08-16T07:19:39.777Z,85.82
2017-08-16T07:20:20.658Z,85.14
2017-08-16T07:21:01.543Z,85.72
2017-08-16T07:21:42.461Z,85.53
2017-08-16T07:22:23.345Z,85.63
2017-08-16T07:23:04.237Z,85.72
2017-08-16T07:23:45.110Z,84.86
2017-08-16T07:24:26.005Z,85
2017-08-16T07:25:06.882Z,84.91
2017-08-16T07:25:47.774Z,84.91
2017-08-16T07:26:28.671Z,85
2017-08-16T07:27:09.550Z,84.43
2017-08-16T07:27:50.452Z,83.75
2017-08-16T07:28:31.341Z,85
2017-08-16T07:29:12.230Z,84.43
2017-08-16T07:29:53.113Z,84.53
2017-08-16T07:30:34.172Z,83.37
2017-08-16T07:31:15.060Z,83.81
2017-08-16T07:31:55.967Z,82.65
2017-08-16T07:32:36.865Z,83.23
2017-08-16T07:33:17.765Z,82.27
2017-08-16T07:33:58.644Z,82.75
2017-08-16T07:34:39.532Z,81.98
2017-08-16T07:35:20.433Z,82.46
2017-08-16T07:36:01.318Z,82.46
2017-08-16T07:36:42.204Z,83.37
2017-08-16T07:37:23.086Z,83.66
2017-08-16T07:38:03.985Z,83.28
2017-08-16T07:38:44.877Z,84.05
2017-08-16T07:39:25.770Z,82.56
2017-08-16T07:40:06.656Z,83.23
2017-08-16T07:40:47.554Z,82.89
2017-08-16T07:41:28.439Z,82.98
2017-08-16T07:42:09.326Z,84.1
2017-08-16T07:42:50.213Z,83.56
2017-08-16T07:43:31.104Z,82.98
2017-08-16T07:44:12.006Z,81.25
2017-08-16T07:44:52.881Z,82.6
2017-08-16T07:45:33.771Z,82.6
2017-08-16T07:46:14.669Z,81.93
2017-08-16T07:46:55.549Z,82.27
2017-08-16T07:47:36.466Z,83.52
2017-08-16T07:48:17.353Z,81.88
2017-08-16T07:48:58.238Z,82.85
2017-08-16T07:49:39.180Z,82.85
2017-08-16T07:50:20.079Z,82.08
2017-08-16T07:51:00.970Z,82.46
2017-08-16T07:51:41.862Z,82.98
2017-08-16T07:52:22.772Z,83.28
2017-08-16T07:53:03.644Z,83.47
2017-08-16T07:53:44.544Z,83.12
2017-08-16T07:54:25.440Z,81.35
2017-08-16T07:55:06.341Z,81.45
2017-08-16T07:55:47.287Z,82.06
2017-08-16T07:56:28.171Z,82.12
2017-08-16T07:57:09.057Z,81.39
2017-08-16T07:57:49.953Z,81.87
2017-08-16T07:58:30.842Z,81.25
2017-08-16T07:59:11.734Z,80.87
2017-08-16T07:59:52.628Z,81.16
2017-08-16T08:00:33.525Z,82.54
2017-08-16T08:01:14.417Z,83.41
2017-08-16T08:01:55.325Z,84.18
2017-08-16T08:02:36.212Z,82.93
2017-08-16T08:03:17.110Z,83.41
2017-08-16T08:03:58.002Z,83.31
2017-08-16T08:04:38.910Z,83.8
2017-08-16T08:05:19.800Z,84.38
2017-08-16T08:06:00.692Z,84.28
2017-08-16T08:06:41.581Z,82.06
2017-08-16T08:07:22.476Z,82.26
2017-08-16T08:08:03.375Z,83.03
2017-08-16T08:08:44.253Z,81.96
2017-08-16T08:09:25.143Z,83.03
2017-08-16T08:10:06.076Z,82.45
2017-08-16T08:10:46.920Z,82.16
2017-08-16T08:11:27.812Z,82.93
2017-08-16T08:12:08.780Z,83.12
2017-08-16T08:12:49.636Z,82.35
2017-08-16T08:13:30.568Z,80.77
2017-08-16T08:14:11.471Z,79.61
2017-08-16T08:14:52.353Z,79.9
2017-08-16T08:15:33.238Z,80.48
2017-08-16T08:16:14.129Z,81.06
2017-08-16T08:16:55.021Z,81.29
2017-08-16T08:17:35.900Z,81.54
2017-08-16T08:18:16.798Z,81.35
2017-08-16T08:18:57.685Z,79.81
2017-08-16T08:19:38.570Z,79.52
2017-08-16T08:20:19.478Z,79.38
2017-08-16T08:21:00.359Z,78.71
2017-08-16T08:21:41.246Z,78.65
2017-08-16T08:22:22.129Z,77.17
2017-08-16T08:23:03.017Z,77.04
2017-08-16T08:23:43.925Z,77.84
2017-08-16T08:24:24.816Z,77.94
2017-08-16T08:25:05.717Z,76.88
2017-08-16T08:25:46.584Z,75.79
2017-08-16T08:26:27.460Z,75.21
2017-08-16T08:27:08.341Z,76.26
2017-08-16T08:27:49.258Z,75.4
2017-08-16T08:28:30.124Z,75.4
2017-08-16T08:29:11.024Z,75.98
2017-08-16T08:29:51.930Z,75.02
2017-08-16T08:30:32.791Z,75.02
2017-08-16T08:31:13.682Z,74.63
2017-08-16T08:31:54.583Z,74.44
2017-08-16T08:32:35.468Z,74.15
2017-08-16T08:33:16.338Z,73.57
2017-08-16T08:33:57.222Z,73.57
2017-08-16T08:34:38.118Z,73.96
2017-08-16T08:35:19.037Z,73.06
2017-08-16T08:35:59.930Z,73.47
2017-08-16T08:36:40.817Z,73
2017-08-16T08:37:21.726Z,72.9
2017-08-16T08:38:02.618Z,72.48
2017-08-16T08:38:43.500Z,73
2017-08-16T08:39:24.373Z,72.67
2017-08-16T08:40:05.264Z,72
2017-08-16T08:40:46.167Z,73.25
2017-08-16T08:41:27.036Z,73.83
2017-08-16T08:42:07.925Z,72.67
2017-08-16T08:42:48.834Z,72.19
2017-08-16T08:43:29.697Z,72.19
2017-08-16T08:44:10.589Z,72.58
2017-08-16T08:44:51.464Z,72.48
2017-08-16T08:45:32.372Z,72.29
2017-08-16T08:46:13.251Z,72.09
2017-08-16T08:46:54.138Z,72
2017-08-16T08:47:35.061Z,72.09
2017-08-16T08:48:15.928Z,71.52
2017-08-16T08:48:56.809Z,71.04
2017-08-16T08:49:37.715Z,71.91
2017-08-16T08:50:18.583Z,71.52
2017-08-16T08:50:59.464Z,72